createdAt,value
2023-04-15T00:01:01.349Z,57.00
2023-04-15T00:03:28.610Z,57.10
2023-04-15T00:05:55.441Z,57.10
2023-04-15T00:08:22.138Z,57.00
2023-04-15T00:10:49.354Z,57.10
2023-04-15T00:13:16.531Z,57.10
2023-04-15T00:15:43.498Z,57.10
2023-04-15T00:18:10.362Z,57.10
2023-04-15T00:20:37.543Z,57.10
2023-04-15T00:23:04.458Z,57.10
2023-04-15T00:25:31.587Z,57.10
2023-04-15T00:27:58.299Z,57.10
2023-04-15T00:30:26.467Z,57.20
2023-04-15T00:32:53.507Z,57.20
2023-04-15T00:35:20.606Z,57.20
2023-04-15T00:37:47.214Z,57.20
2023-04-15T00:40:16.331Z,57.30
2023-04-15T00:42:43.350Z,57.30
2023-04-15T00:45:10.865Z,57.30
2023-04-15T00:47:39.198Z,57.30
2023-04-15T00:50:06.483Z,57.30
2023-04-15T00:52:33.228Z,57.30
2023-04-15T00:55:00.308Z,57.30
2023-04-15T00:57:28.689Z,57.30
2023-04-15T00:59:56.770Z,57.30
2023-04-15T01:02:24.168Z,57.30
2023-04-15T01:04:51.242Z,57.30
2023-04-15T01:07:17.859Z,57.30
2023-04-15T01:09:45.619Z,57.30
2023-04-15T01:12:16.996Z,57.20
2023-04-15T01:14:43.849Z,57.30
2023-04-15T01:17:10.440Z,57.30
2023-04-15T01:19:37.470Z,57.30
2023-04-15T01:22:05.528Z,57.30
2023-04-15T01:24:34.022Z,57.30
2023-04-15T01:27:00.660Z,57.30
2023-04-15T01:29:27.915Z,57.30
2023-04-15T01:31:56.253Z,57.30
2023-04-15T01:34:23.171Z,57.30
2023-04-15T01:36:49.857Z,57.30
2023-04-15T01:39:16.587Z,57.30
2023-04-15T01:41:43.259Z,57.30
2023-04-15T01:44:10.047Z,57.30
2023-04-15T01:46:36.924Z,57.30
2023-04-15T01:49:03.638Z,57.30
2023-04-15T01:51:30.213Z,57.30
2023-04-15T01:53:56.989Z,57.30
2023-04-15T01:56:26.778Z,57.90
2023-04-15T01:58:53.636Z,57.40
2023-04-15T02:01:20.581Z,57.30
2023-04-15T02:03:47.934Z,57.30
2023-04-15T02:06:15.069Z,57.30
2023-04-15T02:08:41.805Z,57.30
2023-04-15T02:11:08.486Z,57.30
2023-04-15T02:13:35.295Z,57.30
2023-04-15T02:16:02.111Z,57.30
2023-04-15T02:18:28.842Z,57.30
2023-04-15T02:20:57.235Z,57.40
2023-04-15T02:23:24.499Z,57.40
2023-04-15T02:25:53.465Z,57.40
2023-04-15T02:28:21.475Z,57.30
2023-04-15T02:30:52.680Z,57.40
2023-04-15T02:33:19.987Z,57.40
2023-04-15T02:35:47.221Z,57.40
2023-04-15T02:38:14.813Z,57.40
2023-04-15T02:40:41.560Z,57.30
2023-04-15T02:43:08.202Z,57.30
2023-04-15T02:45:35.085Z,57.40
2023-04-15T02:48:06.085Z,57.30
2023-04-15T02:50:33.183Z,57.40
2023-04-15T02:53:01.594Z,57.30
2023-04-15T02:55:28.901Z,57.30
2023-04-15T02:57:55.620Z,57.40
2023-04-15T03:00:22.506Z,57.30
2023-04-15T03:02:52.378Z,57.40
2023-04-15T03:05:19.161Z,57.40
2023-04-15T03:07:45.803Z,57.30
2023-04-15T03:10:12.755Z,57.30
2023-04-15T03:12:39.510Z,57.40
2023-04-15T03:15:06.888Z,57.40
2023-04-15T03:17:33.848Z,57.30
2023-04-15T03:20:03.957Z,57.30
2023-04-15T03:22:31.645Z,57.30
2023-04-15T03:24:58.442Z,57.40
2023-04-15T03:27:26.190Z,57.40
2023-04-15T03:29:52.815Z,57.40
2023-04-15T03:32:19.488Z,57.40
2023-04-15T03:34:46.186Z,57.40
2023-04-15T03:37:12.808Z,57.30
2023-04-15T03:39:39.398Z,57.30
2023-04-15T03:42:05.998Z,57.30
2023-04-15T03:44:32.870Z,57.30
2023-04-15T03:46:59.513Z,57.30
2023-04-15T03:49:26.136Z,57.40
2023-04-15T03:51:52.792Z,57.40
2023-04-15T03:54:19.355Z,57.30
2023-04-15T03:56:45.960Z,57.30
2023-04-15T03:59:12.521Z,57.40
2023-04-15T04:01:39.120Z,57.30
2023-04-15T04:04:05.819Z,57.30
2023-04-15T04:06:32.610Z,57.30
2023-04-15T04:08:59.505Z,57.40
2023-04-15T04:11:26.379Z,57.30
2023-04-15T04:13:52.953Z,57.30
2023-04-15T04:16:20.040Z,57.30
2023-04-15T04:18:46.781Z,57.30
2023-04-15T04:21:13.571Z,57.30
2023-04-15T04:23:40.203Z,57.30
2023-04-15T04:26:07.126Z,57.40
2023-04-15T04:28:35.094Z,57.30
2023-04-15T04:31:01.728Z,57.30
2023-04-15T04:33:28.418Z,57.30
2023-04-15T04:35:55.054Z,57.30
2023-04-15T04:38:21.694Z,57.40
2023-04-15T04:40:48.711Z,57.30
2023-04-15T04:43:16.053Z,57.30
2023-04-15T04:45:42.915Z,57.20
2023-04-15T04:48:12.820Z,57.20
2023-04-15T04:50:39.858Z,57.30
2023-04-15T04:53:06.507Z,57.40
2023-04-15T04:55:33.132Z,57.30
2023-04-15T04:57:59.702Z,57.30
2023-04-15T05:00:26.272Z,57.70
2023-04-15T05:02:53.078Z,57.80
2023-04-15T05:05:19.773Z,57.40
2023-04-15T05:07:47.243Z,57.60
2023-04-15T05:10:15.289Z,57.60
2023-04-15T05:12:42.147Z,57.50
2023-04-15T05:15:09.226Z,57.40
2023-04-15T05:17:35.967Z,58.00
2023-04-15T05:20:03.711Z,57.20
2023-04-15T05:22:30.430Z,58.20
2023-04-15T05:24:57.002Z,58.50
2023-04-15T05:27:24.029Z,58.60
2023-04-15T05:29:50.945Z,59.10
2023-04-15T05:32:17.587Z,57.80
2023-04-15T05:34:44.196Z,58.60
2023-04-15T05:37:10.832Z,59.60
2023-04-15T05:39:37.474Z,59.60
2023-04-15T05:42:05.790Z,59.50
2023-04-15T05:44:32.565Z,59.70
2023-04-15T05:46:59.257Z,60.00
2023-04-15T05:49:26.147Z,60.00
2023-04-15T05:51:52.845Z,59.70
2023-04-15T05:54:20.387Z,59.80
2023-04-15T05:56:47.169Z,59.70
2023-04-15T05:59:13.755Z,59.80
2023-04-15T06:01:40.442Z,59.90
2023-04-15T06:04:07.391Z,59.60
2023-04-15T06:06:34.670Z,60.40
2023-04-15T06:09:01.457Z,59.60
2023-04-15T06:11:28.271Z,59.60
2023-04-15T06:13:54.906Z,59.50
2023-04-15T06:16:21.846Z,59.40
2023-04-15T06:18:48.732Z,59.30
2023-04-15T06:21:15.926Z,59.40
2023-04-15T06:23:42.852Z,59.30
2023-04-15T06:26:09.445Z,59.20
2023-04-15T06:28:36.092Z,59.20
2023-04-15T06:31:03.081Z,59.20
2023-04-15T06:33:29.874Z,59.10
2023-04-15T06:35:56.501Z,59.10
2023-04-15T06:38:23.181Z,59.10
2023-04-15T06:40:49.910Z,58.90
2023-04-15T06:43:16.487Z,58.90
2023-04-15T06:45:43.106Z,58.90
2023-04-15T06:48:09.780Z,58.90
2023-04-15T06:50:36.450Z,58.90
2023-04-15T06:53:03.137Z,58.80
2023-04-15T06:55:29.889Z,58.80
2023-04-15T06:57:56.526Z,58.70
2023-04-15T07:00:23.262Z,58.80
2023-04-15T07:02:49.978Z,58.80
2023-04-15T07:05:16.880Z,58.70
2023-04-15T07:07:43.558Z,58.70
2023-04-15T07:10:11.864Z,58.80
2023-04-15T07:12:38.693Z,58.60
2023-04-15T07:15:06.628Z,58.50
2023-04-15T07:17:33.309Z,58.50
2023-04-15T07:20:00.064Z,58.50
2023-04-15T07:22:26.676Z,58.40
2023-04-15T07:24:53.319Z,58.50
2023-04-15T07:27:20.044Z,58.40
2023-04-15T07:29:46.681Z,58.40
2023-04-15T07:32:13.313Z,58.40
2023-04-15T07:34:40.067Z,58.30
2023-04-15T07:37:06.701Z,58.30
2023-04-15T07:39:33.342Z,58.40
2023-04-15T07:42:00.104Z,58.20
2023-04-15T07:44:27.616Z,58.30
2023-04-15T07:46:54.206Z,58.30
2023-04-15T07:49:21.506Z,58.30
2023-04-15T07:51:49.249Z,58.30
2023-04-15T07:54:16.297Z,58.30
2023-04-15T07:56:43.017Z,58.30
2023-04-15T07:59:10.016Z,58.20
2023-04-15T08:01:36.939Z,58.20
2023-04-15T08:04:03.999Z,58.20
2023-04-15T08:06:31.220Z,58.20
2023-04-15T08:08:58.046Z,58.10
2023-04-15T08:11:24.948Z,58.10
2023-04-15T08:13:52.371Z,58.10
2023-04-15T08:16:27.900Z,58.10
2023-04-15T08:18:56.617Z,58.00
2023-04-15T08:21:23.766Z,58.00
2023-04-15T08:23:52.055Z,58.00
2023-04-15T08:26:20.216Z,57.90
2023-04-15T08:28:47.043Z,58.20
2023-04-15T08:31:15.550Z,57.90
2023-04-15T08:33:42.563Z,57.80
2023-04-15T08:36:09.285Z,57.80
2023-04-15T08:38:36.369Z,58.40
2023-04-15T08:41:07.343Z,58.10
2023-04-15T08:43:37.670Z,57.80
2023-04-15T08:46:05.284Z,57.80
2023-04-15T08:48:34.921Z,57.70
2023-04-15T08:51:02.268Z,57.70
2023-04-15T08:53:30.699Z,57.80
2023-04-15T08:55:59.812Z,57.70
2023-04-15T08:58:26.500Z,57.80
2023-04-15T09:00:53.655Z,57.70
2023-04-15T09:03:21.841Z,57.70
2023-04-15T09:05:50.074Z,57.70
2023-04-15T09:08:18.043Z,57.70
2023-04-15T09:10:45.102Z,57.60
2023-04-15T09:13:12.109Z,57.50
2023-04-15T09:15:38.965Z,57.50
2023-04-15T09:18:06.323Z,57.40
2023-04-15T09:20:42.968Z,57.30
2023-04-15T09:23:14.169Z,57.20
2023-04-15T09:25:44.915Z,57.00
2023-04-15T09:28:12.157Z,57.00
2023-04-15T09:30:38.984Z,57.00
2023-04-15T09:33:08.451Z,56.90
2023-04-15T09:35:38.183Z,57.00
2023-04-15T09:38:10.197Z,56.90
2023-04-15T09:40:41.142Z,56.90
2023-04-15T09:43:09.779Z,56.90
2023-04-15T09:45:37.184Z,56.90
2023-04-15T09:48:36.369Z,56.80
2023-04-15T09:51:03.178Z,56.80
2023-04-15T09:53:31.766Z,56.20
2023-04-15T09:56:03.378Z,56.70
2023-04-15T09:58:31.975Z,56.70
2023-04-15T10:01:01.602Z,57.30
2023-04-15T10:03:31.594Z,56.70
2023-04-15T10:06:00.695Z,56.70
2023-04-15T10:08:29.267Z,56.60
2023-04-15T10:10:56.187Z,56.60
2023-04-15T10:13:25.459Z,56.50
2023-04-15T10:15:56.572Z,56.60
2023-04-15T10:18:26.616Z,56.50
2023-04-15T10:20:54.124Z,56.50
2023-04-15T10:23:22.741Z,56.50
2023-04-15T10:25:51.685Z,56.50
2023-04-15T10:28:19.431Z,56.50
2023-04-15T10:30:47.903Z,56.40
2023-04-15T10:33:16.220Z,56.40
2023-04-15T10:35:43.409Z,56.40
2023-04-15T10:38:37.407Z,56.20
2023-04-15T10:41:21.464Z,56.30
2023-04-15T10:44:02.704Z,56.20
2023-04-15T10:46:41.257Z,56.20
2023-04-15T10:49:16.864Z,56.10
2023-04-15T10:51:45.849Z,56.10
2023-04-15T10:54:25.890Z,56.10
2023-04-15T10:57:02.502Z,55.90
2023-04-15T10:59:58.228Z,56.10
2023-04-15T11:02:43.570Z,56.10
2023-04-15T11:05:12.031Z,56.10
2023-04-15T11:07:41.944Z,56.10
2023-04-15T11:10:17.440Z,56.00
2023-04-15T11:12:45.425Z,56.10
2023-04-15T11:15:42.598Z,56.00
2023-04-15T11:18:19.306Z,56.10
2023-04-15T11:21:06.621Z,56.00
2023-04-15T11:23:38.291Z,56.10
2023-04-15T11:26:09.191Z,56.10
2023-04-15T11:28:38.275Z,56.10
2023-04-15T11:31:17.568Z,56.10
2023-04-15T11:33:47.337Z,56.10
2023-04-15T11:36:14.308Z,56.10
2023-04-15T11:38:44.827Z,56.10
2023-04-15T11:41:11.924Z,56.70
2023-04-15T11:43:38.701Z,56.10
2023-04-15T11:46:05.505Z,56.10
2023-04-15T11:48:34.847Z,56.10
2023-04-15T11:51:06.657Z,56.10
2023-04-15T11:53:47.169Z,56.10
2023-04-15T11:56:18.979Z,56.00
2023-04-15T11:58:46.553Z,56.00
2023-04-15T12:01:13.940Z,56.00
2023-04-15T12:03:43.940Z,55.90
2023-04-15T12:06:19.530Z,56.20
2023-04-15T12:09:03.066Z,55.90
2023-04-15T12:11:32.845Z,55.90
2023-04-15T12:14:07.309Z,55.90
2023-04-15T12:16:44.552Z,55.80
2023-04-15T12:19:23.428Z,55.50
2023-04-15T12:21:50.449Z,55.80
2023-04-15T12:24:22.381Z,55.50
2023-04-15T12:26:57.846Z,55.30
2023-04-15T12:29:28.203Z,55.50
2023-04-15T12:31:57.232Z,55.60
2023-04-15T12:34:32.112Z,55.30
2023-04-15T12:37:00.633Z,55.10
2023-04-15T12:39:30.764Z,55.20
2023-04-15T12:41:57.766Z,55.40
2023-04-15T12:44:24.688Z,55.30
2023-04-15T12:46:52.950Z,55.30
2023-04-15T12:49:21.383Z,55.10
2023-04-15T12:51:53.156Z,54.90
2023-04-15T12:54:20.129Z,54.80
2023-04-15T12:56:47.742Z,55.10
2023-04-15T12:59:15.023Z,55.20
2023-04-15T13:01:41.873Z,54.90
2023-04-15T13:04:09.304Z,54.90
2023-04-15T13:06:36.846Z,55.10
2023-04-15T13:09:05.278Z,54.70
2023-04-15T13:11:33.732Z,54.70
2023-04-15T13:14:02.169Z,54.90
2023-04-15T13:16:29.114Z,54.80
2023-04-15T13:18:55.878Z,54.70
2023-04-15T13:21:22.577Z,54.60
2023-04-15T13:23:52.666Z,54.70
2023-04-15T13:26:19.705Z,54.80
2023-04-15T13:28:46.388Z,54.50
2023-04-15T13:31:13.274Z,54.30
2023-04-15T13:33:40.128Z,54.30
2023-04-15T13:36:07.252Z,48.70
2023-04-15T13:38:33.925Z,43.00
2023-04-15T13:41:00.574Z,48.00
2023-04-15T13:43:27.510Z,52.00
2023-04-15T13:45:54.136Z,52.50
2023-04-15T13:48:20.798Z,52.40
2023-04-15T13:50:47.424Z,52.60
2023-04-15T13:53:14.081Z,52.60
2023-04-15T13:55:42.485Z,52.70
2023-04-15T13:58:09.654Z,52.70
2023-04-15T14:00:36.346Z,52.80
2023-04-15T14:03:03.204Z,53.00
2023-04-15T14:05:30.342Z,53.10
2023-04-15T14:07:56.983Z,53.30
2023-04-15T14:10:23.686Z,53.40
2023-04-15T14:12:50.619Z,53.60
2023-04-15T14:15:17.291Z,53.70
2023-04-15T14:17:43.968Z,53.70
2023-04-15T14:20:10.993Z,53.80
2023-04-15T14:22:37.747Z,54.00
2023-04-15T14:25:05.067Z,54.50
2023-04-15T14:27:31.763Z,54.10
2023-04-15T14:29:58.908Z,54.20
2023-04-15T14:32:26.741Z,54.30
2023-04-15T14:34:53.407Z,54.50
2023-04-15T14:37:20.089Z,54.60
2023-04-15T14:39:46.745Z,55.30
2023-04-15T14:42:13.366Z,54.70
2023-04-15T14:44:39.979Z,55.00
2023-04-15T14:47:06.958Z,54.80
2023-04-15T14:49:33.663Z,55.00
2023-04-15T14:52:00.325Z,55.20
2023-04-15T14:54:26.963Z,55.30
2023-04-15T14:56:53.549Z,55.40
2023-04-15T14:59:20.130Z,55.50
2023-04-15T15:01:47.017Z,55.50
2023-04-15T15:04:13.840Z,55.60
2023-04-15T15:06:41.517Z,55.40
2023-04-15T15:09:08.462Z,55.50
2023-04-15T15:11:35.208Z,55.30
2023-04-15T15:14:01.892Z,55.30
2023-04-15T15:16:29.261Z,55.30
2023-04-15T15:18:56.103Z,55.30
2023-04-15T15:21:23.013Z,55.60
2023-04-15T15:23:50.056Z,54.90
2023-04-15T15:26:16.984Z,54.80
2023-04-15T15:28:45.446Z,54.90
2023-04-15T15:31:12.096Z,54.50
2023-04-15T15:33:38.791Z,55.10
2023-04-15T15:36:05.912Z,54.80
2023-04-15T15:38:32.518Z,55.00
2023-04-15T15:40:59.286Z,55.10
2023-04-15T15:43:26.081Z,55.20
2023-04-15T15:45:55.377Z,55.30
2023-04-15T15:48:23.686Z,55.20
2023-04-15T15:50:51.632Z,55.00
2023-04-15T15:53:20.752Z,55.10
2023-04-15T15:55:52.633Z,55.40
2023-04-15T15:58:20.673Z,55.20
2023-04-15T16:00:47.631Z,55.30
2023-04-15T16:03:15.056Z,55.40
2023-04-15T16:05:41.906Z,55.60
2023-04-15T16:08:08.649Z,55.70
2023-04-15T16:10:35.409Z,55.90
2023-04-15T16:13:02.919Z,56.00
2023-04-15T16:15:29.741Z,56.20
2023-04-15T16:17:56.528Z,56.20
2023-04-15T16:20:23.522Z,56.30
2023-04-15T16:22:50.290Z,56.50
2023-04-15T16:25:17.564Z,56.50
2023-04-15T16:27:57.648Z,56.80
2023-04-15T16:30:28.871Z,56.70
2023-04-15T16:32:56.465Z,56.90
2023-04-15T16:35:23.155Z,56.90
2023-04-15T16:37:49.744Z,56.90
2023-04-15T16:40:16.389Z,57.00
2023-04-15T16:42:43.658Z,57.20
2023-04-15T16:45:10.757Z,57.20
2023-04-15T16:47:37.416Z,57.30
2023-04-15T16:50:04.329Z,57.30
2023-04-15T16:52:30.975Z,57.30
2023-04-15T16:54:57.626Z,57.40
2023-04-15T16:57:24.688Z,57.40
2023-04-15T16:59:58.351Z,54.50
2023-04-15T17:02:25.079Z,57.50
2023-04-15T17:04:52.084Z,58.50
2023-04-15T17:07:18.694Z,58.00
2023-04-15T17:09:45.371Z,57.60
2023-04-15T17:12:12.016Z,57.50
2023-04-15T17:14:38.908Z,57.50
2023-04-15T17:17:06.515Z,57.50
2023-04-15T17:19:33.571Z,57.60
2023-04-15T17:22:01.058Z,57.70
2023-04-15T17:24:27.746Z,57.80
2023-04-15T17:26:54.446Z,58.20
2023-04-15T17:29:21.129Z,57.90
2023-04-15T17:31:47.799Z,58.10
2023-04-15T17:34:15.935Z,58.10
2023-04-15T17:36:42.842Z,58.30
2023-04-15T17:39:09.600Z,58.60
2023-04-15T17:41:36.225Z,58.80
2023-04-15T17:46:29.811Z,60.00
2023-04-15T17:48:56.474Z,60.20
2023-04-15T17:51:23.102Z,54.50
2023-04-15T17:53:49.821Z,53.10
2023-04-15T17:56:16.465Z,55.80
2023-04-15T17:58:43.527Z,58.00
2023-04-15T18:01:10.358Z,57.90
2023-04-15T18:03:37.122Z,57.80
2023-04-15T18:06:03.988Z,57.60
2023-04-15T18:08:31.542Z,57.80
2023-04-15T18:10:58.198Z,57.80
2023-04-15T18:13:24.871Z,58.00
2023-04-15T18:15:51.703Z,58.10
2023-04-15T18:18:18.428Z,58.10
2023-04-15T18:20:45.315Z,58.40
2023-04-15T18:23:11.970Z,58.50
2023-04-15T18:25:38.661Z,58.50
2023-04-15T18:28:05.763Z,58.60
2023-04-15T18:30:32.403Z,58.70
2023-04-15T18:32:59.190Z,58.90
2023-04-15T18:35:25.892Z,58.80
2023-04-15T18:37:52.993Z,58.90
2023-04-15T18:40:19.818Z,59.10
2023-04-15T18:42:46.608Z,59.10
2023-04-15T18:45:13.348Z,59.10
2023-04-15T18:47:40.164Z,59.40
2023-04-15T18:50:08.094Z,58.50
2023-04-15T18:52:34.905Z,57.60
2023-04-15T18:55:03.245Z,57.70
2023-04-15T18:57:35.239Z,58.00
2023-04-15T19:00:04.978Z,58.30
2023-04-15T19:02:31.698Z,58.30
2023-04-15T19:04:58.405Z,58.70
2023-04-15T19:07:25.119Z,58.70
2023-04-15T19:09:52.693Z,58.70
2023-04-15T19:12:19.368Z,58.70
2023-04-15T19:14:46.048Z,58.70
2023-04-15T19:17:12.683Z,58.80
2023-04-15T19:19:39.323Z,58.90
2023-04-15T19:22:06.568Z,59.00
2023-04-15T19:24:33.352Z,59.00
2023-04-15T19:27:00.152Z,59.10
2023-04-15T19:29:28.543Z,59.20
2023-04-15T19:31:55.941Z,59.20
2023-04-15T19:34:22.921Z,59.40
2023-04-15T19:36:49.593Z,59.60
2023-04-15T19:39:16.555Z,59.80
2023-04-15T19:41:44.178Z,60.10
2023-04-15T19:44:12.958Z,60.30
2023-04-15T19:46:40.810Z,60.30
2023-04-15T19:49:07.733Z,60.30
2023-04-15T19:51:34.486Z,60.40
2023-04-15T19:54:01.183Z,60.40
2023-04-15T19:56:27.974Z,60.50
2023-04-15T19:58:55.033Z,60.60
2023-04-15T20:01:22.658Z,60.70
2023-04-15T20:03:49.692Z,60.60
2023-04-15T20:06:16.482Z,60.60
2023-04-15T20:08:43.258Z,60.70
2023-04-15T20:11:10.646Z,60.60
2023-04-15T20:13:37.382Z,60.70
2023-04-15T20:16:05.974Z,60.60
2023-04-15T20:18:32.818Z,60.50
2023-04-15T20:20:59.586Z,60.50
2023-04-15T20:23:26.372Z,60.50
2023-04-15T20:25:53.078Z,60.40
2023-04-15T20:28:19.814Z,60.50
2023-04-15T20:30:47.178Z,61.10
2023-04-15T20:33:14.343Z,60.30
2023-04-15T20:35:41.123Z,60.60
2023-04-15T20:38:08.377Z,60.80
2023-04-15T20:40:34.975Z,60.70
2023-04-15T20:43:01.612Z,60.80
2023-04-15T20:45:28.258Z,60.70
2023-04-15T20:47:56.025Z,60.80
2023-04-15T20:50:22.768Z,60.90
2023-04-15T20:52:49.450Z,60.80
2023-04-15T20:55:16.183Z,60.80
2023-04-15T20:57:42.931Z,61.00
2023-04-15T21:00:10.845Z,60.90
2023-04-15T21:02:38.043Z,60.80
2023-04-15T21:05:05.424Z,60.90
2023-04-15T21:07:32.017Z,60.80
2023-04-15T21:09:58.593Z,60.80
2023-04-15T21:12:25.426Z,60.80
2023-04-15T21:14:52.358Z,60.90
2023-04-15T21:17:19.195Z,60.90
2023-04-15T21:19:45.898Z,60.80
2023-04-15T21:22:13.585Z,60.70
2023-04-15T21:24:40.209Z,60.70
2023-04-15T21:27:06.837Z,60.70
2023-04-15T21:29:33.520Z,60.60
2023-04-15T21:32:00.272Z,60.80
2023-04-15T21:34:26.916Z,60.80
2023-04-15T21:36:53.525Z,60.80
2023-04-15T21:39:20.774Z,60.70
2023-04-15T21:41:47.428Z,60.70
2023-04-15T21:44:15.145Z,60.70
2023-04-15T21:46:42.273Z,60.70
2023-04-15T21:49:13.898Z,60.70
2023-04-15T21:51:40.552Z,60.80
2023-04-15T21:54:07.250Z,60.60
2023-04-15T21:56:33.956Z,60.60
2023-04-15T21:59:00.597Z,60.70
2023-04-15T22:01:27.417Z,60.60
2023-04-15T22:03:54.323Z,60.60
2023-04-15T22:06:21.416Z,60.50
2023-04-15T22:08:57.062Z,60.70
2023-04-15T22:11:28.376Z,60.70
2023-04-15T22:13:58.742Z,60.70
2023-04-15T22:16:26.254Z,60.60
2023-04-15T22:18:53.481Z,60.70
2023-04-15T22:21:20.157Z,60.60
2023-04-15T22:23:47.653Z,60.50
2023-04-15T22:26:14.374Z,60.50
2023-04-15T22:28:41.056Z,60.60
2023-04-15T22:31:07.757Z,60.50
2023-04-15T22:33:34.444Z,60.50
2023-04-15T22:36:01.125Z,60.60
2023-04-15T22:38:27.804Z,60.60
2023-04-15T22:40:54.482Z,60.50
2023-04-15T22:43:22.225Z,60.50
2023-04-15T22:45:52.897Z,60.60
2023-04-15T22:48:19.644Z,60.60
2023-04-15T22:50:46.526Z,60.30
2023-04-15T22:53:14.779Z,60.40
2023-04-15T22:55:45.673Z,60.50
2023-04-15T22:58:12.495Z,60.60
2023-04-15T23:00:39.247Z,60.50
2023-04-15T23:03:06.194Z,60.40
2023-04-15T23:05:34.102Z,60.40
2023-04-15T23:08:00.963Z,60.40
2023-04-15T23:10:27.832Z,60.50
2023-04-15T23:12:54.468Z,60.30
2023-04-15T23:15:21.326Z,61.10
2023-04-15T23:17:47.997Z,60.40
2023-04-15T23:20:16.216Z,60.30
2023-04-15T23:22:43.230Z,60.30
2023-04-15T23:25:10.154Z,60.30
2023-04-15T23:27:36.912Z,60.30
2023-04-15T23:30:04.023Z,60.20
2023-04-15T23:32:30.891Z,60.30
2023-04-15T23:34:57.590Z,60.20
2023-04-15T23:37:24.266Z,60.20
2023-04-15T23:39:50.924Z,60.20
2023-04-15T23:42:17.551Z,60.20
2023-04-15T23:44:44.836Z,60.10
2023-04-15T23:47:11.499Z,60.00
2023-04-15T23:49:40.683Z,60.10
2023-04-15T23:52:07.670Z,60.20
2023-04-15T23:54:34.323Z,60.00
2023-04-15T23:57:00.927Z,60.00
2023-04-15T23:59:27.574Z,60.00
